createdAt,value
2023-05-25T00:00:19.411Z,21.21
2023-05-25T00:02:44.142Z,21.30
2023-05-25T00:05:11.478Z,21.15
2023-05-25T00:06:21.923Z,21.06
2023-05-25T00:07:37.917Z,21.08
2023-05-25T00:08:49.034Z,21.07
2023-05-25T00:11:14.200Z,21.25
2023-05-25T00:13:39.789Z,21.31
2023-05-25T00:14:49.686Z,21.21
2023-05-25T00:17:14.865Z,21.31
2023-05-25T00:18:27.250Z,21.16
2023-05-25T00:19:38.261Z,21.14
2023-05-25T00:20:47.759Z,21.07
2023-05-25T00:23:11.853Z,21.12
2023-05-25T00:25:36.986Z,20.94
2023-05-25T00:28:03.978Z,20.99
2023-05-25T00:29:15.568Z,20.79
2023-05-25T00:30:25.284Z,20.68
2023-05-25T00:31:36.397Z,20.68
2023-05-25T00:34:02.369Z,20.71
2023-05-25T00:36:28.972Z,20.82
2023-05-25T00:37:38.553Z,20.74
2023-05-25T00:40:05.065Z,20.96
2023-05-25T00:42:28.202Z,20.93
2023-05-25T00:43:37.878Z,20.97
2023-05-25T00:46:03.427Z,21.15
2023-05-25T00:48:29.966Z,21.21
2023-05-25T00:50:59.446Z,21.27
2023-05-25T00:52:11.996Z,21.19
2023-05-25T00:54:37.394Z,21.32
2023-05-25T00:57:26.968Z,21.36
2023-05-25T00:58:38.431Z,21.27
2023-05-25T01:01:12.048Z,21.26
2023-05-25T01:02:24.185Z,21.08
2023-05-25T01:03:37.645Z,20.98
2023-05-25T01:06:11.359Z,20.95
2023-05-25T01:07:25.082Z,20.89
2023-05-25T01:10:02.368Z,21.07
2023-05-25T01:11:14.855Z,21.00
2023-05-25T01:12:26.331Z,21.03
2023-05-25T01:13:38.614Z,21.00
2023-05-25T01:16:06.057Z,20.97
2023-05-25T01:18:34.041Z,20.94
2023-05-25T01:19:49.575Z,20.80
2023-05-25T01:22:50.865Z,20.73
2023-05-25T01:25:37.068Z,20.71
2023-05-25T01:27:08.532Z,20.54
2023-05-25T01:29:47.414Z,20.81
2023-05-25T01:30:58.118Z,20.75
2023-05-25T01:32:08.948Z,20.75
2023-05-25T01:34:35.914Z,20.57
2023-05-25T01:35:47.574Z,20.26
2023-05-25T01:38:12.921Z,20.40
2023-05-25T01:40:39.711Z,20.55
2023-05-25T01:41:50.072Z,20.51
2023-05-25T01:42:59.865Z,20.56
2023-05-25T01:44:10.450Z,20.61
2023-05-25T01:45:19.663Z,20.67
2023-05-25T01:49:34.828Z,20.75
2023-05-25T01:52:39.529Z,20.72
2023-05-25T01:55:12.157Z,20.73
2023-05-25T01:57:42.198Z,20.67
2023-05-25T02:01:29.571Z,20.25
2023-05-25T02:02:43.117Z,20.03
2023-05-25T02:05:11.047Z,20.10
2023-05-25T02:06:21.850Z,19.95
2023-05-25T02:08:49.182Z,20.05
2023-05-25T02:09:58.359Z,19.95
2023-05-25T02:12:26.463Z,20.20
2023-05-25T02:14:50.939Z,20.27
2023-05-25T02:16:00.046Z,20.02
2023-05-25T02:18:28.200Z,19.82
2023-05-25T02:20:54.489Z,19.65
2023-05-25T02:23:19.402Z,19.49
2023-05-25T02:25:45.450Z,19.37
2023-05-25T02:28:10.671Z,19.19
2023-05-25T02:30:35.894Z,19.20
2023-05-25T02:31:45.467Z,19.06
2023-05-25T02:33:02.235Z,19.06
2023-05-25T02:35:27.839Z,19.15
2023-05-25T02:37:52.984Z,19.41
2023-05-25T02:40:17.215Z,19.64
2023-05-25T02:42:42.068Z,19.82
2023-05-25T02:43:51.822Z,19.78
2023-05-25T02:46:36.374Z,19.89
2023-05-25T02:49:01.775Z,19.53
2023-05-25T02:50:11.412Z,19.40
2023-05-25T02:51:22.823Z,19.36
2023-05-25T02:53:48.331Z,19.27
2023-05-25T02:54:57.117Z,19.22
2023-05-25T02:57:26.596Z,19.27
2023-05-25T02:58:37.411Z,19.14
2023-05-25T03:01:10.184Z,19.27
2023-05-25T03:03:36.777Z,19.28
2023-05-25T03:04:47.506Z,19.13
2023-05-25T03:06:04.644Z,19.13
2023-05-25T03:07:14.985Z,19.23
2023-05-25T03:09:39.884Z,19.33
2023-05-25T03:12:07.831Z,19.48
2023-05-25T03:14:32.964Z,19.67
2023-05-25T03:15:44.683Z,19.65
2023-05-25T03:18:09.922Z,19.96
2023-05-25T03:19:20.424Z,19.91
2023-05-25T03:21:46.805Z,20.11
2023-05-25T03:24:11.493Z,20.23
2023-05-25T03:25:20.619Z,20.18
2023-05-25T03:26:33.077Z,20.26
2023-05-25T03:27:43.176Z,20.31
2023-05-25T03:30:11.798Z,20.53
2023-05-25T03:32:36.763Z,20.69
2023-05-25T03:33:46.816Z,20.64
2023-05-25T03:34:57.104Z,20.65
2023-05-25T03:37:26.053Z,20.79
2023-05-25T03:39:54.276Z,20.97
2023-05-25T03:42:18.869Z,21.17
2023-05-25T03:44:42.820Z,21.56
2023-05-25T03:47:09.582Z,21.94
2023-05-25T03:48:20.342Z,22.00
2023-05-25T03:49:30.190Z,22.18
2023-05-25T03:51:59.782Z,22.70
2023-05-25T03:54:24.375Z,23.05
2023-05-25T03:55:34.665Z,23.06
2023-05-25T03:57:59.620Z,23.32
2023-05-25T04:00:25.370Z,23.54
2023-05-25T04:01:39.141Z,23.53
2023-05-25T04:02:48.037Z,23.63
2023-05-25T04:05:13.280Z,23.74
2023-05-25T04:07:40.532Z,23.62
2023-05-25T04:10:07.860Z,23.60
2023-05-25T04:12:33.924Z,23.62
2023-05-25T04:14:58.809Z,23.71
2023-05-25T04:17:24.792Z,23.77
2023-05-25T04:18:34.756Z,23.76
2023-05-25T04:21:02.056Z,23.96
2023-05-25T04:23:26.439Z,24.21
2023-05-25T04:24:36.596Z,24.22
2023-05-25T04:27:02.562Z,24.42
2023-05-25T04:29:29.043Z,24.63
2023-05-25T04:32:17.757Z,24.84
2023-05-25T04:35:27.391Z,25.25
2023-05-25T04:37:54.529Z,25.38
2023-05-25T04:40:21.309Z,25.48
2023-05-25T04:42:47.526Z,25.67
2023-05-25T04:44:05.991Z,25.52
2023-05-25T04:46:25.723Z,25.56
2023-05-25T04:47:35.932Z,25.46
2023-05-25T04:50:01.373Z,25.69
2023-05-25T04:52:26.251Z,25.80
2023-05-25T04:53:37.564Z,25.79
2023-05-25T04:56:02.380Z,26.15
2023-05-25T04:57:12.051Z,25.94
2023-05-25T04:59:40.794Z,26.02
2023-05-25T05:02:08.489Z,26.08
2023-05-25T05:04:32.849Z,26.25
2023-05-25T05:07:08.846Z,26.21
2023-05-25T05:08:18.152Z,26.10
2023-05-25T05:09:28.940Z,26.09
2023-05-25T05:11:56.122Z,26.19
2023-05-25T05:14:40.258Z,26.27
2023-05-25T05:15:50.525Z,26.17
2023-05-25T05:18:16.568Z,26.26
2023-05-25T05:20:41.009Z,26.31
2023-05-25T05:21:59.196Z,26.25
2023-05-25T05:24:25.603Z,26.51
2023-05-25T05:25:35.319Z,26.55
2023-05-25T05:28:00.376Z,26.93
2023-05-25T05:30:27.183Z,27.23
2023-05-25T05:32:51.660Z,27.28
2023-05-25T05:35:17.610Z,27.31
2023-05-25T05:37:47.326Z,27.43
2023-05-25T05:40:13.329Z,27.62
2023-05-25T05:42:38.639Z,27.68
2023-05-25T05:45:03.188Z,27.72
2023-05-25T05:47:28.459Z,27.85
2023-05-25T05:49:54.775Z,28.01
2023-05-25T05:52:20.235Z,28.07
2023-05-25T05:54:44.080Z,27.94
2023-05-25T05:57:13.732Z,28.11
2023-05-25T05:59:39.655Z,28.22
2023-05-25T06:02:03.908Z,28.33
2023-05-25T06:04:31.001Z,28.47
2023-05-25T06:06:55.664Z,28.65
2023-05-25T06:09:20.897Z,28.67
2023-05-25T06:11:45.288Z,28.72
2023-05-25T06:14:10.912Z,28.99
2023-05-25T06:15:20.092Z,29.07
2023-05-25T06:17:46.303Z,29.37
2023-05-25T06:20:13.796Z,29.62
2023-05-25T06:22:58.475Z,29.82
2023-05-25T06:25:24.323Z,29.73
2023-05-25T06:27:49.365Z,29.79
2023-05-25T06:30:14.276Z,30.04
2023-05-25T06:32:41.607Z,30.23
2023-05-25T06:35:08.099Z,30.27
2023-05-25T06:36:23.303Z,30.12
2023-05-25T06:38:50.044Z,30.26
2023-05-25T06:41:15.852Z,30.34
2023-05-25T06:43:43.154Z,30.01
2023-05-25T06:46:10.870Z,29.76
2023-05-25T06:48:37.204Z,29.76
2023-05-25T06:49:46.958Z,29.38
2023-05-25T06:52:12.307Z,29.51
2023-05-25T06:54:57.407Z,29.79
2023-05-25T06:57:24.445Z,30.04
2023-05-25T06:59:49.754Z,30.16
2023-05-25T07:02:17.759Z,30.27
2023-05-25T07:04:44.339Z,30.60
2023-05-25T07:07:10.278Z,30.78
2023-05-25T07:09:35.340Z,30.91
2023-05-25T07:12:01.705Z,30.74
2023-05-25T07:13:11.594Z,30.68
2023-05-25T07:15:38.645Z,30.89
2023-05-25T07:18:22.221Z,30.94
2023-05-25T07:20:47.879Z,30.80
2023-05-25T07:23:12.797Z,30.84
2023-05-25T07:25:47.122Z,30.74
2023-05-25T07:28:11.049Z,29.68
2023-05-25T07:30:36.930Z,29.79
2023-05-25T07:33:02.832Z,29.86
2023-05-25T07:35:30.542Z,29.65
2023-05-25T07:36:39.314Z,29.45
2023-05-25T07:39:14.144Z,29.60
2023-05-25T07:41:41.192Z,29.66
2023-05-25T07:44:05.883Z,29.59
2023-05-25T07:46:34.195Z,29.28
2023-05-25T07:48:59.347Z,29.01
2023-05-25T07:51:28.583Z,28.81
2023-05-25T07:52:38.544Z,28.43
2023-05-25T07:55:09.688Z,28.25
2023-05-25T07:57:36.811Z,28.42
2023-05-25T07:58:45.907Z,28.45
2023-05-25T08:01:10.924Z,28.82
2023-05-25T08:03:49.131Z,28.88
2023-05-25T08:06:04.460Z,28.65
2023-05-25T08:08:29.679Z,28.82
2023-05-25T08:10:55.537Z,28.16
2023-05-25T08:13:20.340Z,28.43
2023-05-25T08:15:45.490Z,28.49
2023-05-25T08:18:12.151Z,28.51
2023-05-25T08:20:37.280Z,28.29
2023-05-25T08:23:05.427Z,28.37
2023-05-25T08:25:30.517Z,28.42
2023-05-25T08:27:55.983Z,28.24
2023-05-25T08:30:21.971Z,28.13
2023-05-25T08:31:33.397Z,27.66
2023-05-25T08:34:01.140Z,28.00
2023-05-25T08:36:29.136Z,28.18
2023-05-25T08:37:38.284Z,27.56
2023-05-25T08:40:02.193Z,27.89
2023-05-25T08:42:29.593Z,27.63
2023-05-25T08:43:38.931Z,27.51
2023-05-25T08:46:08.094Z,27.56
2023-05-25T08:47:17.826Z,27.42
2023-05-25T08:49:46.548Z,27.17
2023-05-25T08:52:18.511Z,26.91
2023-05-25T08:53:31.793Z,25.48
2023-05-25T08:56:08.867Z,24.33
2023-05-25T08:58:59.180Z,24.61
2023-05-25T09:01:33.472Z,24.80
2023-05-25T09:04:06.374Z,24.88
2023-05-25T09:05:15.693Z,24.76
2023-05-25T09:07:47.485Z,24.84
2023-05-25T09:08:57.817Z,24.70
2023-05-25T09:11:37.194Z,24.85
2023-05-25T09:13:56.038Z,24.95
2023-05-25T09:16:25.008Z,25.05
2023-05-25T09:17:36.529Z,24.96
2023-05-25T09:20:00.431Z,25.06
2023-05-25T09:21:10.382Z,24.96
2023-05-25T09:22:19.587Z,24.86
2023-05-25T09:24:45.766Z,24.80
2023-05-25T09:27:20.971Z,24.62
2023-05-25T09:31:06.756Z,24.43
2023-05-25T09:32:17.520Z,24.28
2023-05-25T09:34:46.896Z,23.86
2023-05-25T09:35:57.104Z,23.65
2023-05-25T09:38:30.973Z,23.72
2023-05-25T09:40:57.088Z,23.75
2023-05-25T09:43:36.533Z,23.72
2023-05-25T09:45:49.026Z,23.65
2023-05-25T09:48:21.509Z,23.79
2023-05-25T09:49:31.748Z,23.75
2023-05-25T09:51:58.110Z,23.91
2023-05-25T09:54:22.958Z,23.71
2023-05-25T09:57:07.122Z,23.80
2023-05-25T09:59:32.683Z,23.82
2023-05-25T10:02:00.018Z,23.75
2023-05-25T10:04:28.993Z,23.58
2023-05-25T10:06:56.961Z,23.73
2023-05-25T10:09:25.413Z,23.87
2023-05-25T10:11:56.261Z,23.96
2023-05-25T10:13:09.042Z,23.85
2023-05-25T10:15:46.310Z,23.85
2023-05-25T10:18:15.440Z,23.60
2023-05-25T10:21:04.137Z,23.49
2023-05-25T10:23:42.693Z,23.02
2023-05-25T10:26:29.421Z,22.72
2023-05-25T10:29:03.926Z,22.50
2023-05-25T10:30:16.388Z,22.06
2023-05-25T10:32:47.721Z,22.38
2023-05-25T10:35:14.648Z,22.43
2023-05-25T10:37:43.028Z,22.35
2023-05-25T10:40:14.672Z,22.47
2023-05-25T10:42:41.693Z,22.43
2023-05-25T10:45:11.060Z,22.46
2023-05-25T10:47:43.977Z,22.33
2023-05-25T10:48:54.208Z,22.22
2023-05-25T10:50:05.031Z,22.30
2023-05-25T10:52:32.794Z,22.42
2023-05-25T10:55:04.174Z,22.43
2023-05-25T10:57:30.140Z,22.42
2023-05-25T11:00:07.269Z,22.52
2023-05-25T11:02:55.291Z,22.61
2023-05-25T11:05:34.523Z,22.73
2023-05-25T11:10:55.503Z,22.72
2023-05-25T11:13:48.899Z,22.84
2023-05-25T11:16:32.196Z,22.81
2023-05-25T11:17:47.374Z,22.70
2023-05-25T11:19:01.374Z,22.70
2023-05-25T11:20:25.986Z,22.74
2023-05-25T11:21:45.355Z,22.78
2023-05-25T11:25:44.602Z,22.89
2023-05-25T11:28:18.444Z,22.99
2023-05-25T11:30:46.689Z,23.08
2023-05-25T11:33:12.057Z,23.13
2023-05-25T11:35:41.102Z,23.19
2023-05-25T11:38:18.162Z,23.22
2023-05-25T11:40:48.449Z,23.21
2023-05-25T11:43:17.787Z,23.09
2023-05-25T11:45:56.554Z,22.99
2023-05-25T11:48:29.972Z,22.71
2023-05-25T11:51:05.390Z,22.62
2023-05-25T11:53:29.655Z,22.56
2023-05-25T11:56:03.747Z,22.59
2023-05-25T11:58:41.400Z,22.63
2023-05-25T12:01:18.799Z,22.74
2023-05-25T12:02:29.762Z,22.71
2023-05-25T12:05:00.722Z,23.04
2023-05-25T12:07:30.880Z,23.22
2023-05-25T12:10:11.052Z,23.34
2023-05-25T12:12:49.611Z,23.48
2023-05-25T12:13:58.935Z,23.42
2023-05-25T12:15:11.990Z,23.47
2023-05-25T12:17:38.256Z,23.68
2023-05-25T12:20:05.643Z,23.75
2023-05-25T12:22:32.096Z,23.82
2023-05-25T12:24:57.220Z,23.86
2023-05-25T12:27:26.431Z,23.92
2023-05-25T12:29:53.083Z,23.96
2023-05-25T12:31:26.399Z,23.88
2023-05-25T12:32:57.744Z,23.91
2023-05-25T12:34:14.506Z,23.93
2023-05-25T12:36:53.440Z,24.08
2023-05-25T12:39:36.988Z,24.12
2023-05-25T12:42:02.830Z,24.11
2023-05-25T12:44:34.928Z,24.19
2023-05-25T12:45:44.497Z,24.10
2023-05-25T12:48:10.579Z,24.25
2023-05-25T12:50:58.860Z,24.30
2023-05-25T12:53:26.816Z,24.39
2023-05-25T12:54:45.043Z,24.29
2023-05-25T12:56:06.394Z,24.30
2023-05-25T12:58:31.967Z,24.43
2023-05-25T13:01:01.844Z,24.46
2023-05-25T13:03:27.716Z,24.54
2023-05-25T13:05:57.319Z,24.44
2023-05-25T13:08:23.408Z,24.42
2023-05-25T13:10:51.994Z,24.47
2023-05-25T13:13:18.750Z,24.48
2023-05-25T13:15:48.211Z,24.50
2023-05-25T13:18:12.755Z,24.42
2023-05-25T13:20:50.001Z,24.49
2023-05-25T13:21:58.787Z,24.42
2023-05-25T13:24:23.696Z,24.47
2023-05-25T13:26:50.871Z,24.47
2023-05-25T13:28:01.108Z,24.35
2023-05-25T13:30:27.723Z,24.48
2023-05-25T13:32:54.928Z,24.55
2023-05-25T13:35:21.460Z,24.53
2023-05-25T13:37:48.682Z,24.54
2023-05-25T13:40:14.413Z,24.48
2023-05-25T13:42:38.897Z,24.43
2023-05-25T13:45:52.229Z,24.01
2023-05-25T13:48:16.598Z,24.17
2023-05-25T13:50:40.983Z,23.74
2023-05-25T13:51:50.217Z,23.72
2023-05-25T13:52:59.773Z,23.55
2023-05-25T13:54:10.765Z,23.56
2023-05-25T13:55:20.677Z,23.63
2023-05-25T13:56:30.794Z,23.68
2023-05-25T13:57:40.483Z,23.74
2023-05-25T14:00:07.944Z,23.78
2023-05-25T14:02:35.744Z,23.77
2023-05-25T14:05:01.865Z,23.71
2023-05-25T14:07:32.694Z,23.61
2023-05-25T14:10:00.463Z,23.64
2023-05-25T14:12:24.841Z,23.42
2023-05-25T14:14:51.720Z,23.39
2023-05-25T14:17:24.565Z,23.51
2023-05-25T14:19:50.158Z,23.59
2023-05-25T14:20:59.974Z,23.42
2023-05-25T14:22:14.135Z,23.37
2023-05-25T14:24:37.192Z,23.42
2023-05-25T14:27:04.486Z,23.45
2023-05-25T14:29:36.748Z,23.48
2023-05-25T14:32:02.196Z,23.53
2023-05-25T14:33:15.592Z,23.44
2023-05-25T14:35:41.399Z,23.55
2023-05-25T14:38:05.611Z,23.62
2023-05-25T14:40:29.296Z,23.52
2023-05-25T14:41:38.115Z,23.45
2023-05-25T14:44:02.083Z,23.62
2023-05-25T14:46:27.546Z,23.52
2023-05-25T14:48:51.410Z,23.51
2023-05-25T14:51:16.044Z,23.54
2023-05-25T14:53:41.263Z,23.50
2023-05-25T14:56:11.252Z,23.51
2023-05-25T14:58:36.331Z,23.58
2023-05-25T14:59:46.250Z,23.50
2023-05-25T15:00:56.328Z,23.55
2023-05-25T15:03:20.411Z,23.75
2023-05-25T15:05:47.247Z,23.80
2023-05-25T15:08:13.274Z,23.86
2023-05-25T15:10:37.123Z,23.92
2023-05-25T15:13:01.820Z,23.93
2023-05-25T15:15:26.203Z,23.98
2023-05-25T15:17:52.707Z,24.03
2023-05-25T15:20:18.051Z,24.03
2023-05-25T15:21:37.887Z,23.93
2023-05-25T15:24:02.839Z,24.03
2023-05-25T15:26:27.228Z,24.03
2023-05-25T15:28:51.680Z,24.00
2023-05-25T15:31:17.351Z,23.97
2023-05-25T15:32:26.876Z,23.87
2023-05-25T15:34:52.583Z,24.00
2023-05-25T15:36:02.362Z,23.89
2023-05-25T15:37:12.997Z,23.88
2023-05-25T15:39:37.248Z,23.95
2023-05-25T15:40:46.603Z,23.83
2023-05-25T15:41:55.593Z,23.83
2023-05-25T15:44:21.373Z,23.93
2023-05-25T15:45:30.258Z,23.85
2023-05-25T15:46:41.073Z,23.87
2023-05-25T15:49:08.828Z,24.05
2023-05-25T15:51:33.157Z,24.09
2023-05-25T15:54:01.924Z,24.12
2023-05-25T15:55:14.340Z,24.03
2023-05-25T15:57:38.780Z,24.16
2023-05-25T16:00:06.247Z,24.19
2023-05-25T16:02:30.761Z,24.20
2023-05-25T16:04:56.508Z,24.22
2023-05-25T16:06:06.493Z,24.11
2023-05-25T16:08:33.955Z,24.23
2023-05-25T16:10:58.878Z,24.27
2023-05-25T16:12:07.831Z,24.18
2023-05-25T16:13:17.592Z,24.20
2023-05-25T16:15:42.653Z,24.31
2023-05-25T16:16:51.860Z,24.22
2023-05-25T16:19:18.033Z,24.33
2023-05-25T16:21:46.804Z,24.34
2023-05-25T16:22:56.064Z,24.23
2023-05-25T16:25:24.909Z,24.31
2023-05-25T16:26:36.236Z,24.20
2023-05-25T16:29:01.992Z,24.28
2023-05-25T16:30:13.300Z,24.18
2023-05-25T16:31:22.571Z,24.15
2023-05-25T16:33:49.479Z,24.23
2023-05-25T16:36:14.272Z,24.27
2023-05-25T16:37:24.208Z,24.15
2023-05-25T16:39:49.080Z,24.20
2023-05-25T16:42:13.330Z,24.10
2023-05-25T16:43:24.700Z,23.98
2023-05-25T16:44:33.878Z,23.97
2023-05-25T16:46:58.774Z,24.10
2023-05-25T16:49:22.581Z,24.15
2023-05-25T16:51:48.440Z,24.23
2023-05-25T16:54:14.410Z,24.24
2023-05-25T16:56:38.015Z,24.31
2023-05-25T16:59:01.954Z,24.33
2023-05-25T17:01:27.762Z,24.31
2023-05-25T17:03:51.799Z,24.26
2023-05-25T17:06:26.745Z,24.29
2023-05-25T17:07:37.653Z,24.23
2023-05-25T17:10:02.132Z,24.37
2023-05-25T17:11:13.179Z,24.28
2023-05-25T17:13:38.572Z,24.39
2023-05-25T17:14:49.118Z,24.29
2023-05-25T17:15:58.603Z,24.27
2023-05-25T17:18:24.682Z,24.23
2023-05-25T17:20:49.578Z,24.21
2023-05-25T17:23:15.380Z,24.23
2023-05-25T17:25:40.145Z,24.26
2023-05-25T17:26:52.098Z,24.16
2023-05-25T17:29:17.800Z,24.27
2023-05-25T17:31:44.011Z,24.24
2023-05-25T17:34:09.323Z,24.27
2023-05-25T17:35:17.945Z,24.14
2023-05-25T17:37:42.555Z,24.24
2023-05-25T17:38:57.940Z,24.10
2023-05-25T17:41:22.835Z,24.15
2023-05-25T17:42:31.888Z,24.04
2023-05-25T17:43:42.470Z,24.04
2023-05-25T17:44:51.748Z,23.99
2023-05-25T17:46:00.821Z,23.97
2023-05-25T17:48:29.346Z,24.03
2023-05-25T17:49:39.312Z,23.91
2023-05-25T17:52:04.673Z,23.95
2023-05-25T17:54:32.020Z,23.95
2023-05-25T17:56:58.188Z,23.93
2023-05-25T17:59:22.265Z,23.94
2023-05-25T18:01:48.776Z,23.91
2023-05-25T18:04:15.404Z,23.81
2023-05-25T18:05:25.275Z,23.68
2023-05-25T18:06:34.380Z,23.63
2023-05-25T18:08:59.291Z,23.65
2023-05-25T18:11:27.654Z,23.63
2023-05-25T18:13:51.504Z,23.64
2023-05-25T18:16:15.661Z,23.63
2023-05-25T18:18:39.703Z,23.60
2023-05-25T18:21:04.817Z,23.52
2023-05-25T18:23:29.054Z,23.54
2023-05-25T18:25:54.877Z,23.54
2023-05-25T18:27:05.458Z,23.41
2023-05-25T18:29:30.617Z,23.55
2023-05-25T18:31:54.581Z,23.55
2023-05-25T18:33:03.767Z,23.41
2023-05-25T18:35:28.141Z,23.46
2023-05-25T18:36:37.579Z,23.34
2023-05-25T18:39:03.654Z,23.40
2023-05-25T18:41:28.298Z,23.39
2023-05-25T18:43:55.202Z,23.42
2023-05-25T18:46:21.794Z,23.49
2023-05-25T18:48:46.761Z,23.54
2023-05-25T18:49:56.231Z,23.42
2023-05-25T18:51:04.994Z,23.42
2023-05-25T18:53:30.125Z,23.47
2023-05-25T18:55:54.385Z,23.43
2023-05-25T18:58:18.643Z,23.35
2023-05-25T19:00:43.377Z,23.34
2023-05-25T19:03:07.806Z,23.36
2023-05-25T19:04:17.348Z,23.26
2023-05-25T19:06:44.139Z,23.38
2023-05-25T19:09:09.161Z,23.33
2023-05-25T19:11:39.237Z,23.30
2023-05-25T19:12:49.729Z,23.19
2023-05-25T19:15:16.555Z,23.27
2023-05-25T19:16:26.439Z,23.17
2023-05-25T19:17:36.253Z,23.16
2023-05-25T19:18:45.464Z,23.16
2023-05-25T19:21:10.817Z,23.22
2023-05-25T19:22:20.875Z,23.11
2023-05-25T19:23:30.882Z,23.09
2023-05-25T19:25:54.870Z,23.12
2023-05-25T19:28:20.461Z,23.10
2023-05-25T19:30:46.590Z,23.09
2023-05-25T19:33:11.209Z,23.13
2023-05-25T19:34:21.495Z,23.05
2023-05-25T19:35:31.211Z,23.06
2023-05-25T19:37:55.618Z,23.14
2023-05-25T19:40:20.030Z,23.14
2023-05-25T19:42:44.228Z,23.13
2023-05-25T19:45:08.646Z,23.21
2023-05-25T19:46:18.698Z,23.11
2023-05-25T19:49:03.706Z,23.26
2023-05-25T19:51:29.601Z,23.27
2023-05-25T19:53:55.617Z,23.26
2023-05-25T19:56:22.544Z,23.26
2023-05-25T19:58:46.833Z,23.26
2023-05-25T19:59:56.184Z,23.13
2023-05-25T20:01:07.107Z,23.11
2023-05-25T20:03:31.764Z,23.21
2023-05-25T20:05:58.462Z,23.24
2023-05-25T20:08:24.243Z,23.22
2023-05-25T20:10:51.548Z,23.20
2023-05-25T20:13:18.343Z,23.14
2023-05-25T20:14:27.474Z,23.02
2023-05-25T20:16:56.207Z,23.06
2023-05-25T20:19:24.671Z,22.94
2023-05-25T20:21:50.229Z,22.91
2023-05-25T20:24:15.150Z,22.85
2023-05-25T20:26:40.528Z,22.87
2023-05-25T20:29:04.483Z,22.85
2023-05-25T20:31:29.544Z,22.84
2023-05-25T20:33:53.501Z,22.83
2023-05-25T20:36:17.791Z,22.79
2023-05-25T20:38:44.959Z,22.79
2023-05-25T20:41:09.236Z,22.79
2023-05-25T20:43:35.251Z,22.80
2023-05-25T20:45:58.968Z,22.78
2023-05-25T20:47:09.690Z,22.69
2023-05-25T20:49:34.011Z,22.84
2023-05-25T20:51:57.997Z,22.82
2023-05-25T20:53:07.184Z,22.70
2023-05-25T20:55:32.310Z,22.77
2023-05-25T20:58:00.627Z,22.73
2023-05-25T21:00:25.628Z,22.70
2023-05-25T21:01:34.913Z,22.59
2023-05-25T21:03:59.047Z,22.63
2023-05-25T21:06:25.640Z,22.61
2023-05-25T21:08:49.376Z,22.57
2023-05-25T21:11:18.083Z,22.52
2023-05-25T21:13:44.721Z,22.54
2023-05-25T21:16:08.353Z,22.50
2023-05-25T21:18:34.863Z,22.53
2023-05-25T21:19:44.847Z,22.40
2023-05-25T21:22:10.792Z,22.50
2023-05-25T21:23:20.022Z,22.38
2023-05-25T21:24:30.391Z,22.37
2023-05-25T21:25:40.729Z,22.35
2023-05-25T21:28:08.270Z,22.42
2023-05-25T21:30:33.086Z,22.42
2023-05-25T21:31:51.237Z,22.30
2023-05-25T21:33:01.121Z,22.32
2023-05-25T21:34:10.777Z,22.33
2023-05-25T21:36:36.410Z,22.40
2023-05-25T21:39:01.619Z,22.40
2023-05-25T21:41:26.775Z,22.39
2023-05-25T21:43:50.483Z,22.40
2023-05-25T21:46:14.526Z,22.41
2023-05-25T21:47:23.870Z,22.31
2023-05-25T21:49:49.275Z,22.39
2023-05-25T21:51:01.432Z,22.28
2023-05-25T21:52:11.716Z,22.26
2023-05-25T21:53:21.206Z,22.25
2023-05-25T21:54:30.372Z,22.23
2023-05-25T21:56:55.884Z,22.23
2023-05-25T21:59:20.991Z,22.17
2023-05-25T22:01:47.178Z,22.10
2023-05-25T22:02:56.116Z,22.00
2023-05-25T22:04:05.973Z,21.96
2023-05-25T22:06:33.305Z,22.03
2023-05-25T22:09:00.152Z,21.98
2023-05-25T22:11:25.583Z,21.94
2023-05-25T22:12:34.399Z,21.82
2023-05-25T22:13:44.204Z,21.81
2023-05-25T22:14:53.347Z,21.81
2023-05-25T22:16:02.164Z,21.80
2023-05-25T22:18:27.458Z,21.87
2023-05-25T22:20:51.942Z,21.79
2023-05-25T22:23:17.914Z,21.79
2023-05-25T22:24:27.774Z,21.68
2023-05-25T22:25:38.842Z,21.67
2023-05-25T22:26:47.755Z,21.62
2023-05-25T22:27:57.268Z,21.60
2023-05-25T22:29:12.050Z,21.59
2023-05-25T22:31:38.027Z,21.68
2023-05-25T22:34:05.799Z,21.63
2023-05-25T22:36:31.435Z,21.59
2023-05-25T22:37:40.434Z,21.48
2023-05-25T22:38:50.594Z,21.47
2023-05-25T22:41:17.853Z,21.57
2023-05-25T22:43:42.008Z,21.59
2023-05-25T22:46:08.197Z,21.59
2023-05-25T22:48:34.595Z,21.56
2023-05-25T22:50:59.185Z,21.53
2023-05-25T22:52:18.880Z,21.44
2023-05-25T22:54:44.888Z,21.52
2023-05-25T22:57:10.692Z,21.52
2023-05-25T22:59:36.409Z,21.54
2023-05-25T23:02:00.755Z,21.54
2023-05-25T23:03:10.296Z,21.44
2023-05-25T23:05:36.300Z,21.52
2023-05-25T23:06:51.314Z,21.41
2023-05-25T23:09:15.899Z,21.48
2023-05-25T23:10:25.716Z,21.38
2023-05-25T23:12:59.064Z,21.44
2023-05-25T23:15:23.506Z,21.33
2023-05-25T23:17:50.673Z,21.32
2023-05-25T23:20:16.829Z,21.29
2023-05-25T23:22:44.706Z,21.21
2023-05-25T23:25:09.941Z,21.17
2023-05-25T23:27:34.710Z,21.15
2023-05-25T23:28:44.425Z,21.04
2023-05-25T23:31:10.425Z,21.06
2023-05-25T23:32:20.245Z,20.96
2023-05-25T23:34:46.247Z,21.04
2023-05-25T23:37:12.683Z,21.05
2023-05-25T23:39:37.875Z,21.04
2023-05-25T23:42:02.901Z,21.03
2023-05-25T23:44:29.078Z,21.06
2023-05-25T23:46:53.500Z,21.10
2023-05-25T23:49:18.085Z,21.09
2023-05-25T23:51:42.732Z,21.07
2023-05-25T23:52:52.521Z,20.93
2023-05-25T23:55:17.811Z,21.06
2023-05-25T23:56:28.891Z,20.95
2023-05-25T23:58:55.213Z,21.06
